createdAt,value
2023-08-15T00:01:49.927Z,101415.13
2023-08-15T00:04:16.837Z,101384.09
2023-08-15T00:06:43.484Z,101406.16
2023-08-15T00:09:10.170Z,101412.28
2023-08-15T00:11:36.821Z,101435.19
2023-08-15T00:14:03.565Z,101404.25
2023-08-15T00:16:30.406Z,101429.00
2023-08-15T00:18:57.083Z,101430.66
2023-08-15T00:21:23.728Z,101430.63
2023-08-15T00:23:50.496Z,101434.03
2023-08-15T00:26:17.342Z,101437.53
2023-08-15T00:28:46.607Z,101404.66
2023-08-15T00:31:13.297Z,101370.16
2023-08-15T00:33:42.963Z,101430.25
2023-08-15T00:36:09.605Z,101440.75
2023-08-15T00:38:36.248Z,101442.47
2023-08-15T00:41:02.904Z,101423.78
2023-08-15T00:43:31.977Z,101433.41
2023-08-15T00:46:01.353Z,101447.41
2023-08-15T00:48:31.428Z,101451.78
2023-08-15T00:51:01.189Z,101448.13
2023-08-15T00:53:31.419Z,101455.97
2023-08-15T00:55:59.269Z,101407.34
2023-08-15T00:58:27.311Z,101452.34
2023-08-15T01:00:54.033Z,101455.75
2023-08-15T01:03:21.166Z,101441.53
2023-08-15T01:05:48.887Z,101452.06
2023-08-15T01:08:16.551Z,101454.66
2023-08-15T01:10:44.196Z,101460.66
2023-08-15T01:13:17.178Z,101456.19
2023-08-15T01:15:51.598Z,101456.78
2023-08-15T01:18:32.287Z,101424.03
2023-08-15T01:21:00.391Z,101454.91
2023-08-15T01:23:52.838Z,101455.69
2023-08-15T01:26:21.881Z,101454.78
2023-08-15T01:28:51.193Z,101444.16
2023-08-15T01:31:30.049Z,101450.41
2023-08-15T01:34:08.030Z,101458.16
2023-08-15T01:36:41.274Z,101450.22
2023-08-15T01:39:08.650Z,101456.28
2023-08-15T01:41:41.060Z,101377.28
2023-08-15T01:44:14.421Z,101434.78
2023-08-15T01:46:47.732Z,101437.41
2023-08-15T01:49:17.473Z,101443.50
2023-08-15T01:51:46.227Z,101450.59
2023-08-15T01:54:12.905Z,101465.53
2023-08-15T01:56:39.805Z,101461.94
2023-08-15T01:59:09.603Z,101428.22
2023-08-15T02:01:41.024Z,101437.97
2023-08-15T02:04:07.768Z,101463.56
2023-08-15T02:06:37.421Z,101382.91
2023-08-15T02:09:06.602Z,101465.31
2023-08-15T02:11:33.246Z,101414.88
2023-08-15T02:14:00.079Z,101464.44
2023-08-15T02:16:31.443Z,101426.31
2023-08-15T02:19:00.637Z,101472.53
2023-08-15T02:21:27.297Z,101449.56
2023-08-15T02:23:53.999Z,101474.50
2023-08-15T02:26:20.696Z,101370.75
2023-08-15T02:28:49.709Z,101482.41
2023-08-15T02:31:18.575Z,101458.53
2023-08-15T02:33:45.280Z,101444.59
2023-08-15T02:36:11.998Z,101457.03
2023-08-15T02:38:38.634Z,101455.97
2023-08-15T02:41:08.278Z,101459.47
2023-08-15T02:43:35.196Z,101389.31
2023-08-15T02:46:02.450Z,101446.03
2023-08-15T02:48:31.906Z,101373.94
2023-08-15T02:51:11.915Z,101327.03
2023-08-15T02:53:43.948Z,101298.78
2023-08-15T02:56:11.612Z,101431.75
2023-08-15T02:58:40.691Z,101442.44
2023-08-15T03:01:10.567Z,101293.50
2023-08-15T03:03:40.295Z,101431.81
2023-08-15T03:06:06.978Z,101441.41
2023-08-15T03:08:33.595Z,101483.78
2023-08-15T03:11:00.308Z,101479.06
2023-08-15T03:13:27.032Z,101480.75
2023-08-15T03:15:55.363Z,101493.94
2023-08-15T03:18:22.066Z,101504.25
2023-08-15T03:21:06.476Z,101472.44
2023-08-15T03:23:35.925Z,101487.38
2023-08-15T03:26:06.273Z,101495.28
2023-08-15T03:28:33.697Z,101499.53
2023-08-15T03:31:10.297Z,101511.63
2023-08-15T03:33:39.962Z,101479.69
2023-08-15T03:36:07.080Z,101491.03
2023-08-15T03:38:35.958Z,101520.94
2023-08-15T03:41:08.506Z,101512.00
2023-08-15T03:43:38.507Z,101519.09
2023-08-15T03:46:10.009Z,101514.72
2023-08-15T03:48:37.929Z,101510.13
2023-08-15T03:51:05.646Z,101494.13
2023-08-15T03:53:34.527Z,101538.06
2023-08-15T03:56:01.108Z,101529.22
2023-08-15T03:58:27.933Z,101503.44
2023-08-15T04:00:54.702Z,101509.59
2023-08-15T04:03:21.361Z,101520.22
2023-08-15T04:05:50.692Z,101530.78
2023-08-15T04:08:21.130Z,101527.00
2023-08-15T04:10:48.423Z,101535.84
2023-08-15T04:13:15.835Z,101509.88
2023-08-15T04:15:42.612Z,101531.16
2023-08-15T04:18:12.618Z,101438.78
2023-08-15T04:20:43.763Z,101521.13
2023-08-15T04:23:11.404Z,101541.59
2023-08-15T04:25:42.298Z,101532.47
2023-08-15T04:28:11.277Z,101520.00
2023-08-15T04:30:38.134Z,101548.34
2023-08-15T04:33:05.290Z,101548.09
2023-08-15T04:35:36.796Z,101522.19
2023-08-15T04:38:03.776Z,101558.41
2023-08-15T04:40:45.047Z,101562.84
2023-08-15T04:43:12.295Z,101587.31
2023-08-15T04:45:50.312Z,101591.59
2023-08-15T04:48:17.020Z,101556.91
2023-08-15T04:50:43.755Z,101594.09
2023-08-15T04:53:10.411Z,101588.81
2023-08-15T04:55:37.115Z,101584.34
2023-08-15T04:58:06.306Z,101514.97
2023-08-15T05:00:36.289Z,101593.16
2023-08-15T05:03:03.310Z,101591.19
2023-08-15T05:05:32.519Z,101602.69
2023-08-15T05:07:59.292Z,101600.94
2023-08-15T05:10:25.924Z,101589.06
2023-08-15T05:12:52.775Z,101624.47
2023-08-15T05:15:19.445Z,101596.84
2023-08-15T05:17:49.648Z,101629.69
2023-08-15T05:20:16.772Z,101626.03
2023-08-15T05:22:43.562Z,101621.69
2023-08-15T05:25:10.435Z,101624.41
2023-08-15T05:27:37.766Z,101620.75
2023-08-15T05:30:04.737Z,101644.75
2023-08-15T05:32:31.422Z,101613.72
2023-08-15T05:35:00.190Z,101572.94
2023-08-15T05:37:29.557Z,101646.75
2023-08-15T05:39:56.187Z,101613.91
2023-08-15T05:42:22.857Z,101645.22
2023-08-15T05:44:50.677Z,101648.78
2023-08-15T05:47:22.064Z,101653.25
2023-08-15T05:49:48.973Z,101651.41
2023-08-15T05:52:15.623Z,101662.16
2023-08-15T05:54:42.326Z,101625.91
2023-08-15T05:57:09.276Z,101638.41
2023-08-15T05:59:35.956Z,101661.56
2023-08-15T06:02:07.663Z,101640.25
2023-08-15T06:04:34.508Z,101663.41
2023-08-15T06:07:01.263Z,101651.06
2023-08-15T06:09:28.460Z,101667.25
2023-08-15T06:11:55.271Z,101668.19
2023-08-15T06:14:24.290Z,101628.31
2023-08-15T06:16:53.746Z,101683.56
2023-08-15T06:19:23.114Z,101699.66
2023-08-15T06:21:52.128Z,101679.38
2023-08-15T06:24:18.856Z,101685.81
2023-08-15T06:26:47.633Z,101712.53
2023-08-15T06:29:14.320Z,101709.22
2023-08-15T06:31:41.141Z,101685.53
2023-08-15T06:34:08.578Z,101663.38
2023-08-15T06:36:35.356Z,101711.50
2023-08-15T06:39:02.318Z,101713.47
2023-08-15T06:41:29.043Z,101724.38
2023-08-15T06:43:55.839Z,101729.94
2023-08-15T06:46:27.499Z,101707.34
2023-08-15T06:48:54.264Z,101708.81
2023-08-15T06:51:21.026Z,101676.28
2023-08-15T06:53:50.888Z,101735.13
2023-08-15T06:56:18.221Z,101736.00
2023-08-15T06:58:44.848Z,101739.09
2023-08-15T07:01:13.383Z,101732.06
2023-08-15T07:03:42.393Z,101714.00
2023-08-15T07:06:09.160Z,101700.91
2023-08-15T07:08:35.976Z,101740.44
2023-08-15T07:11:04.015Z,101737.25
2023-08-15T07:13:32.165Z,101749.66
2023-08-15T07:15:59.140Z,101741.50
2023-08-15T07:18:29.167Z,101747.44
2023-08-15T07:20:55.917Z,101683.72
2023-08-15T07:23:22.673Z,101744.97
2023-08-15T07:25:51.806Z,101734.72
2023-08-15T07:28:19.042Z,101742.22
2023-08-15T07:30:49.901Z,101746.88
2023-08-15T07:33:17.441Z,101726.53
2023-08-15T07:35:44.279Z,101743.34
2023-08-15T07:38:11.060Z,101724.97
2023-08-15T07:40:37.973Z,101631.25
2023-08-15T07:43:04.876Z,101735.13
2023-08-15T07:45:31.591Z,101723.84
2023-08-15T07:47:59.715Z,101744.03
2023-08-15T07:50:29.802Z,101753.09
2023-08-15T07:53:00.543Z,101750.28
2023-08-15T07:55:33.295Z,101754.34
2023-08-15T07:58:00.318Z,101725.09
2023-08-15T08:00:27.171Z,101748.25
2023-08-15T08:02:56.425Z,101753.56
2023-08-15T08:05:23.777Z,101733.91
2023-08-15T08:07:55.779Z,101757.63
2023-08-15T08:10:24.792Z,101718.66
2023-08-15T08:12:51.557Z,101745.13
2023-08-15T08:15:24.728Z,101748.13
2023-08-15T08:17:53.980Z,101752.66
2023-08-15T08:20:21.798Z,101728.22
2023-08-15T08:22:48.510Z,101743.06
2023-08-15T08:25:18.023Z,101737.03
2023-08-15T08:27:48.694Z,101745.41
2023-08-15T08:30:18.547Z,101750.13
2023-08-15T08:32:45.537Z,101736.75
2023-08-15T08:35:16.556Z,101753.22
2023-08-15T08:37:44.587Z,101751.84
2023-08-15T08:40:14.029Z,101744.75
2023-08-15T08:42:42.053Z,101750.28
2023-08-15T08:45:12.736Z,101645.69
2023-08-15T08:47:40.949Z,101743.47
2023-08-15T08:50:12.465Z,101744.47
2023-08-15T08:52:43.569Z,101735.66
2023-08-15T08:55:10.628Z,101739.25
2023-08-15T08:57:38.248Z,101733.53
2023-08-15T09:00:09.013Z,101727.06
2023-08-15T09:02:36.796Z,101730.28
2023-08-15T09:05:05.391Z,101738.38
2023-08-15T09:07:38.446Z,101743.06
2023-08-15T09:10:08.723Z,101744.28
2023-08-15T09:12:36.997Z,101733.56
2023-08-15T09:15:11.008Z,101742.69
2023-08-15T09:17:42.285Z,101743.00
2023-08-15T09:20:17.865Z,101731.78
2023-08-15T09:22:48.404Z,101735.81
2023-08-15T09:25:17.023Z,101733.97
2023-08-15T09:27:44.114Z,101737.88
2023-08-15T09:30:12.915Z,101740.47
2023-08-15T09:32:43.332Z,101728.06
2023-08-15T09:35:12.056Z,101739.78
2023-08-15T09:37:48.836Z,101719.22
2023-08-15T09:40:18.021Z,101743.53
2023-08-15T09:42:48.597Z,101742.59
2023-08-15T09:45:22.219Z,101735.81
2023-08-15T09:47:49.097Z,101740.44
2023-08-15T09:50:17.358Z,101742.78
2023-08-15T09:52:53.156Z,101749.16
2023-08-15T09:55:20.949Z,101723.38
2023-08-15T09:57:48.033Z,101745.81
2023-08-15T10:00:18.457Z,101741.34
2023-08-15T10:03:25.311Z,101731.25
2023-08-15T10:05:59.122Z,101749.28
2023-08-15T10:08:26.023Z,101746.84
2023-08-15T10:10:57.835Z,101738.97
2023-08-15T10:13:29.963Z,101737.84
2023-08-15T10:15:59.360Z,101705.75
2023-08-15T10:18:26.738Z,101749.53
2023-08-15T10:20:54.828Z,101742.34
2023-08-15T10:23:25.284Z,101738.09
2023-08-15T10:25:54.242Z,101707.56
2023-08-15T10:28:21.380Z,101749.06
2023-08-15T10:30:52.743Z,101687.09
2023-08-15T10:33:21.761Z,101742.56
2023-08-15T10:35:50.713Z,101742.22
2023-08-15T10:38:19.905Z,101740.94
2023-08-15T10:40:47.632Z,101723.97
2023-08-15T10:43:17.947Z,101733.53
2023-08-15T10:45:47.516Z,101740.47
2023-08-15T10:48:14.785Z,101739.53
2023-08-15T10:50:47.039Z,101729.34
2023-08-15T10:53:18.891Z,101730.41
2023-08-15T10:55:48.271Z,101717.81
2023-08-15T10:58:16.464Z,101729.31
2023-08-15T11:00:45.672Z,101705.84
2023-08-15T11:03:15.458Z,101730.06
2023-08-15T11:05:42.982Z,101710.44
2023-08-15T11:08:22.206Z,101679.31
2023-08-15T11:10:52.630Z,101729.13
2023-08-15T11:13:19.685Z,101735.75
2023-08-15T11:15:48.631Z,101731.88
2023-08-15T11:18:24.301Z,101731.63
2023-08-15T11:20:55.564Z,101733.47
2023-08-15T11:23:24.750Z,101714.75
2023-08-15T11:25:51.434Z,101720.28
2023-08-15T11:28:20.229Z,101721.47
2023-08-15T11:30:51.638Z,101726.78
2023-08-15T11:33:18.427Z,101722.25
2023-08-15T11:35:48.206Z,101709.31
2023-08-15T11:38:20.256Z,101726.03
2023-08-15T11:40:47.885Z,101736.88
2023-08-15T11:43:15.539Z,101724.59
2023-08-15T11:45:45.087Z,101726.78
2023-08-15T11:48:12.920Z,101742.16
2023-08-15T11:50:44.707Z,101744.13
2023-08-15T11:53:18.996Z,101734.63
2023-08-15T11:55:50.601Z,101741.72
2023-08-15T11:58:34.819Z,101745.03
2023-08-15T12:01:06.553Z,101747.44
2023-08-15T12:03:34.686Z,101726.91
2023-08-15T12:06:06.431Z,101750.00
2023-08-15T12:08:33.587Z,101688.72
2023-08-15T12:11:05.193Z,101742.28
2023-08-15T12:13:34.252Z,101751.19
2023-08-15T12:16:02.120Z,101757.75
2023-08-15T12:18:29.562Z,101752.00
2023-08-15T12:20:59.537Z,101755.22
2023-08-15T12:23:28.674Z,101703.97
2023-08-15T12:25:56.593Z,101756.00
2023-08-15T12:28:23.871Z,101760.81
2023-08-15T12:30:51.065Z,101752.34
2023-08-15T12:33:27.578Z,101763.47
2023-08-15T12:36:04.938Z,101755.84
2023-08-15T12:38:31.611Z,101757.03
2023-08-15T12:40:58.273Z,101757.28
2023-08-15T12:43:24.956Z,101731.16
2023-08-15T12:45:54.123Z,101738.41
2023-08-15T12:48:21.014Z,101756.28
2023-08-15T12:50:47.624Z,101761.78
2023-08-15T12:53:14.318Z,101761.00
2023-08-15T12:55:41.023Z,101766.53
2023-08-15T12:58:09.214Z,101764.91
2023-08-15T13:00:36.759Z,101763.34
2023-08-15T13:03:04.349Z,101753.06
2023-08-15T13:05:35.879Z,101776.91
2023-08-15T13:08:04.875Z,101740.13
2023-08-15T13:10:31.614Z,101776.41
2023-08-15T13:12:58.430Z,101749.16
2023-08-15T13:15:25.648Z,101717.47
2023-08-15T13:17:52.609Z,101740.44
2023-08-15T13:20:19.432Z,101764.41
2023-08-15T13:22:46.109Z,101698.84
2023-08-15T13:25:12.805Z,101751.91
2023-08-15T13:27:39.841Z,101775.06
2023-08-15T13:30:07.348Z,101769.03
2023-08-15T13:32:37.163Z,101689.88
2023-08-15T13:35:04.049Z,101698.69
2023-08-15T13:37:30.707Z,101770.91
2023-08-15T13:39:58.772Z,101743.69
2023-08-15T13:42:35.952Z,101779.16
2023-08-15T13:45:07.597Z,101781.00
2023-08-15T13:47:36.274Z,101737.84
2023-08-15T13:50:03.387Z,101751.97
2023-08-15T13:52:30.224Z,101756.38
2023-08-15T13:54:56.869Z,101771.47
2023-08-15T13:57:28.351Z,101746.13
2023-08-15T13:59:56.005Z,101760.31
2023-08-15T14:02:22.842Z,101771.97
2023-08-15T14:04:51.913Z,101741.19
2023-08-15T14:07:18.640Z,101773.97
2023-08-15T14:09:45.432Z,101780.28
2023-08-15T14:12:12.092Z,101781.16
2023-08-15T14:14:41.484Z,101778.47
2023-08-15T14:17:08.534Z,101772.25
2023-08-15T14:19:35.376Z,101771.41
2023-08-15T14:22:04.542Z,101741.44
2023-08-15T14:24:34.382Z,101754.63
2023-08-15T14:27:01.318Z,101707.09
2023-08-15T14:29:30.978Z,101773.16
2023-08-15T14:31:57.725Z,101775.81
2023-08-15T14:34:24.392Z,101768.78
2023-08-15T14:36:51.145Z,101771.34
2023-08-15T14:39:20.386Z,101764.31
2023-08-15T14:41:47.033Z,101781.03
2023-08-15T14:44:13.772Z,101782.78
2023-08-15T14:46:40.493Z,101792.59
2023-08-15T14:49:07.218Z,101789.09
2023-08-15T14:51:33.874Z,101775.00
2023-08-15T14:54:03.034Z,101767.19
2023-08-15T14:56:29.815Z,101780.41
2023-08-15T14:58:56.597Z,101791.03
2023-08-15T15:01:25.866Z,101800.00
2023-08-15T15:03:56.951Z,101794.72
2023-08-15T15:06:24.113Z,101785.09
2023-08-15T15:08:51.340Z,101711.13
2023-08-15T15:11:17.996Z,101794.03
2023-08-15T15:13:46.678Z,101795.88
2023-08-15T15:16:14.009Z,101794.13
2023-08-15T15:18:42.095Z,101721.00
2023-08-15T15:21:08.869Z,101815.50
2023-08-15T15:23:35.547Z,101775.91
2023-08-15T15:26:02.360Z,101818.34
2023-08-15T15:28:29.104Z,101825.44
2023-08-15T15:30:56.066Z,101827.22
2023-08-15T15:33:27.606Z,101802.66
2023-08-15T15:35:54.337Z,101830.03
2023-08-15T15:38:23.407Z,101823.84
2023-08-15T15:40:50.078Z,101833.63
2023-08-15T15:43:21.441Z,101823.94
2023-08-15T15:45:50.487Z,101842.56
2023-08-15T15:48:17.366Z,101789.63
2023-08-15T15:50:47.428Z,101839.13
2023-08-15T15:53:14.098Z,101832.09
2023-08-15T15:55:40.727Z,101815.28
2023-08-15T15:58:09.716Z,101757.13
2023-08-15T16:00:37.020Z,101848.91
2023-08-15T16:03:03.967Z,101827.75
2023-08-15T16:05:33.646Z,101815.41
2023-08-15T16:08:00.416Z,101849.84
2023-08-15T16:10:29.581Z,101841.91
2023-08-15T16:13:00.998Z,101853.41
2023-08-15T16:15:27.764Z,101819.03
2023-08-15T16:17:54.481Z,101841.16
2023-08-15T16:20:21.231Z,101856.22
2023-08-15T16:22:47.916Z,101867.75
2023-08-15T16:25:14.715Z,101861.53
2023-08-15T16:27:43.778Z,101864.25
2023-08-15T16:30:17.133Z,101877.50
2023-08-15T16:32:49.245Z,101859.84
2023-08-15T16:35:16.310Z,101873.13
2023-08-15T16:37:42.965Z,101750.31
2023-08-15T16:40:11.209Z,101868.72
2023-08-15T16:42:42.716Z,101880.19
2023-08-15T16:45:12.792Z,101876.66
2023-08-15T16:47:44.215Z,101857.28
2023-08-15T16:50:10.967Z,101854.63
2023-08-15T16:52:40.102Z,101867.91
2023-08-15T16:55:06.992Z,101876.69
2023-08-15T16:57:35.909Z,101866.97
2023-08-15T17:00:02.690Z,101782.16
2023-08-15T17:02:29.437Z,101865.25
2023-08-15T17:04:56.172Z,101875.84
2023-08-15T17:07:22.884Z,101813.09
2023-08-15T17:09:52.168Z,101873.22
2023-08-15T17:12:21.178Z,101861.75
2023-08-15T17:14:48.116Z,101882.94
2023-08-15T17:17:14.818Z,101856.41
2023-08-15T17:19:45.797Z,101882.06
2023-08-15T17:22:16.439Z,101896.19
2023-08-15T17:24:46.136Z,101905.03
2023-08-15T17:27:15.441Z,101769.72
2023-08-15T17:29:42.097Z,101923.59
2023-08-15T17:32:08.902Z,101912.09
2023-08-15T17:34:38.549Z,101905.00
2023-08-15T17:37:10.255Z,101906.78
2023-08-15T17:39:37.342Z,101889.97
2023-08-15T17:42:04.102Z,101921.78
2023-08-15T17:44:30.981Z,101921.75
2023-08-15T17:47:00.154Z,101884.56
2023-08-15T17:49:31.605Z,101914.59
2023-08-15T17:51:58.278Z,101933.13
2023-08-15T17:54:24.999Z,101932.22
2023-08-15T17:56:51.664Z,101930.41
2023-08-15T17:59:18.411Z,101940.09
2023-08-15T18:01:48.714Z,101922.38
2023-08-15T18:04:15.808Z,101929.41
2023-08-15T18:06:45.045Z,101795.69
2023-08-15T18:09:11.856Z,101915.13
2023-08-15T18:11:41.260Z,101906.19
2023-08-15T18:14:08.018Z,101898.19
2023-08-15T18:16:36.946Z,101919.38
2023-08-15T18:19:03.766Z,101905.13
2023-08-15T18:21:32.843Z,101878.47
2023-08-15T18:23:59.640Z,101941.34
2023-08-15T18:26:31.434Z,101826.97
2023-08-15T18:28:58.114Z,101949.16
2023-08-15T18:31:24.864Z,101937.59
2023-08-15T18:33:52.049Z,101957.84
2023-08-15T18:36:18.745Z,101957.78
2023-08-15T18:38:45.503Z,101901.94
2023-08-15T18:41:12.532Z,101962.09
2023-08-15T18:43:39.277Z,101889.34
2023-08-15T18:46:06.066Z,101940.72
2023-08-15T18:48:35.165Z,101953.13
2023-08-15T18:51:01.931Z,101956.59
2023-08-15T18:53:28.740Z,101937.03
2023-08-15T18:55:55.464Z,101934.28
2023-08-15T18:58:22.218Z,101955.50
2023-08-15T19:00:51.210Z,101958.06
2023-08-15T19:03:20.339Z,101953.50
2023-08-15T19:05:47.260Z,101941.03
2023-08-15T19:08:14.360Z,101968.41
2023-08-15T19:10:48.313Z,101956.03
2023-08-15T19:13:22.289Z,101940.84
2023-08-15T19:15:49.960Z,101962.88
2023-08-15T19:18:16.813Z,101945.06
2023-08-15T19:20:43.866Z,101968.00
2023-08-15T19:23:10.827Z,101943.09
2023-08-15T19:25:40.816Z,101965.16
2023-08-15T19:28:07.741Z,101916.22
2023-08-15T19:30:34.537Z,101943.66
2023-08-15T19:33:01.274Z,101969.25
2023-08-15T19:35:27.995Z,101891.16
2023-08-15T19:37:55.037Z,101964.72
2023-08-15T19:40:21.666Z,101962.84
2023-08-15T19:42:53.140Z,101985.81
2023-08-15T19:45:22.144Z,101971.50
2023-08-15T19:47:51.089Z,101978.63
2023-08-15T19:50:17.777Z,101976.69
2023-08-15T19:52:44.488Z,101952.56
2023-08-15T19:55:11.886Z,101983.72
2023-08-15T19:57:39.028Z,101969.44
2023-08-15T20:00:08.118Z,101999.59
2023-08-15T20:02:34.858Z,102003.06
2023-08-15T20:05:01.593Z,102001.28
2023-08-15T20:07:30.668Z,102002.97
2023-08-15T20:10:09.819Z,102004.66
2023-08-15T20:12:38.885Z,101991.16
2023-08-15T20:15:06.124Z,102001.03
2023-08-15T20:17:32.829Z,102008.88
2023-08-15T20:19:59.782Z,101924.53
2023-08-15T20:22:26.949Z,102007.88
2023-08-15T20:24:54.152Z,102003.41
2023-08-15T20:27:20.919Z,101991.81
2023-08-15T20:29:54.277Z,101948.22
2023-08-15T20:32:23.589Z,101985.63
2023-08-15T20:34:52.648Z,101990.00
2023-08-15T20:37:21.780Z,101966.81
2023-08-15T20:39:48.549Z,101916.09
2023-08-15T20:42:20.235Z,101994.19
2023-08-15T20:44:46.869Z,101993.25
2023-08-15T20:47:13.814Z,101997.69
2023-08-15T20:49:42.375Z,101989.53
2023-08-15T20:52:11.637Z,102009.00
2023-08-15T20:54:38.329Z,101947.69
2023-08-15T20:57:05.320Z,101979.56
2023-08-15T20:59:32.047Z,101978.63
2023-08-15T21:02:00.461Z,101985.69
2023-08-15T21:04:27.197Z,102010.34
2023-08-15T21:06:54.082Z,102016.53
2023-08-15T21:09:20.815Z,102018.25
2023-08-15T21:11:48.104Z,101983.59
2023-08-15T21:14:15.806Z,102016.41
2023-08-15T21:16:42.952Z,101947.06
2023-08-15T21:19:11.843Z,102007.50
2023-08-15T21:21:38.536Z,102001.28
2023-08-15T21:24:07.972Z,102003.84
2023-08-15T21:26:39.562Z,102005.50
2023-08-15T21:29:09.384Z,101997.53
2023-08-15T21:31:36.036Z,101996.50
2023-08-15T21:34:02.810Z,101927.03
2023-08-15T21:36:29.491Z,101988.31
2023-08-15T21:38:56.162Z,101978.50
2023-08-15T21:41:25.170Z,102006.06
2023-08-15T21:43:54.158Z,102007.69
2023-08-15T21:46:23.374Z,102009.41
2023-08-15T21:48:50.029Z,102002.28
2023-08-15T21:51:18.921Z,102011.09
2023-08-15T21:53:45.642Z,102004.78
2023-08-15T21:56:12.296Z,102016.22
2023-08-15T21:58:38.947Z,102017.81
2023-08-15T22:01:05.650Z,101995.50
2023-08-15T22:03:34.933Z,102026.53
2023-08-15T22:06:04.001Z,102022.78
2023-08-15T22:08:30.730Z,102033.47
2023-08-15T22:10:57.388Z,102027.19
2023-08-15T22:13:24.069Z,102028.00
2023-08-15T22:15:53.717Z,102039.47
2023-08-15T22:18:21.913Z,102039.44
2023-08-15T22:20:49.576Z,102041.13
2023-08-15T22:23:16.533Z,102030.44
2023-08-15T22:25:47.484Z,102044.53
2023-08-15T22:28:15.272Z,102047.16
2023-08-15T22:30:42.466Z,101974.28
2023-08-15T22:33:09.360Z,102042.63
2023-08-15T22:35:42.084Z,102016.81
2023-08-15T22:38:09.199Z,102044.25
2023-08-15T22:40:36.525Z,102041.53
2023-08-15T22:43:04.749Z,102029.03
2023-08-15T22:45:31.572Z,102037.94
2023-08-15T22:48:00.562Z,102009.28
2023-08-15T22:50:27.257Z,102040.41
2023-08-15T22:52:58.381Z,102004.81
2023-08-15T22:55:25.094Z,102042.06
2023-08-15T22:57:53.889Z,101999.38
2023-08-15T23:00:23.090Z,102040.19
2023-08-15T23:02:49.785Z,102034.94
2023-08-15T23:05:16.625Z,102020.63
2023-08-15T23:07:43.826Z,102040.09
2023-08-15T23:10:10.910Z,102041.75
2023-08-15T23:12:39.810Z,101961.53
2023-08-15T23:15:07.604Z,101999.75
2023-08-15T23:17:36.653Z,102004.25
2023-08-15T23:20:03.463Z,102042.38
2023-08-15T23:22:30.109Z,102050.22
2023-08-15T23:24:59.054Z,102040.53
2023-08-15T23:27:26.038Z,102038.75
2023-08-15T23:29:52.921Z,102042.16
2023-08-15T23:32:19.579Z,101988.78
2023-08-15T23:34:46.341Z,102014.50
2023-08-15T23:37:13.089Z,102025.13
2023-08-15T23:39:42.218Z,101985.84
2023-08-15T23:42:13.463Z,101995.66
2023-08-15T23:44:40.092Z,101996.59
2023-08-15T23:47:12.292Z,102008.94
2023-08-15T23:49:38.931Z,102027.53
2023-08-15T23:52:06.063Z,102030.06
2023-08-15T23:54:35.227Z,102038.16
2023-08-15T23:57:04.591Z,101995.38
2023-08-15T23:59:31.555Z,102037.22
